Smith Hunter — WDC7849 — position and weather

sailwx.info

Track history (hours):
 
Tides and Currents Weather Stations Pressure Air Temp Water Temp Dewpoint Dewpoint Depression Visibility Wind Speed Wind Dir Waves Ship Positions

Smith Hunter

Owner: Smith Marine Towing, Morgan City, LA. More information available from US FCC via Universal Licensing System and Coast Guard Vessel Documentation Center.

Last reported at 2018-Jun-22 16:52 UTC. Time now 2018-Jun-24 12:59 UTC.
Position N 34°33' W 076°23'.

Length 28 m; draft 3 m.

Type: Other ship. MMSI: 367077850.

Date/timePositionNaut miles runAvg speedWind from/ knotsBaromVisibWave heightAir tempDewpointWater temp
2018-Jun-22 16:52N 34°33' W 076°23'3 6.9
2018-Jun-22 16:30N 34°31' W 076°24'4 6.3
2018-Jun-22 15:49N 34°27' W 076°27'2 5.1
2018-Jun-22 15:30N 34°26' W 076°29'7 5.4
2018-Jun-22 14:08N 34°30' W 076°37'1 5.8
2018-Jun-22 14:00N 34°31' W 076°37'3 5.9
2018-Jun-22 13:30N 34°32' W 076°40'3 6.1
2018-Jun-22 13:01N 34°34' W 076°43'3 6.3
2018-Jun-22 12:28N 34°36' W 076°47'3 6.3
2018-Jun-22 12:00N 34°37' W 076°50'61 3.2
2018-Jun-21 16:47N 34°12' W 077°57'1 4.6
2018-Jun-21 16:31N 34°14' W 077°57'0 0.0
2018-Jun-21 15:59N 34°14' W 077°57'0 0.0
2018-Jun-21 15:16N 34°14' W 077°57'0 0.0
2018-Jun-21 15:00N 34°14' W 077°57'0 0.0
2018-Jun-21 14:25N 34°14' W 077°57'0 0.0
2018-Jun-21 13:58N 34°14' W 077°57'0 0.0
2018-Jun-21 13:29N 34°14' W 077°57'0 0.0
2018-Jun-21 13:00N 34°14' W 077°57'0 0.0
2018-Jun-21 12:31N 34°14' W 077°57'0 0.0
2018-Jun-21 12:00N 34°14' W 077°57'0 0.0
2018-Jun-21 11:10N 34°14' W 077°57'0 0.0
2018-Jun-21 11:00N 34°14' W 077°57'0 0.0
2018-Jun-21 10:30N 34°14' W 077°57'0 0.0
2018-Jun-21 10:00N 34°14' W 077°57'0 0.0
2018-Jun-21 09:27N 34°14' W 077°57'0 0.0
2018-Jun-21 08:57N 34°14' W 077°57'0 0.0
2018-Jun-21 08:30N 34°14' W 077°57'0 0.0
2018-Jun-21 08:01N 34°14' W 077°57'0 0.0
2018-Jun-21 07:31N 34°14' W 077°57'0 0.0
2018-Jun-21 07:00N 34°14' W 077°57'0 0.0
2018-Jun-21 06:31N 34°14' W 077°57'0 0.0
2018-Jun-21 06:00N 34°14' W 077°57'0 0.0
2018-Jun-21 05:31N 34°14' W 077°57'0 0.0
2018-Jun-21 05:00N 34°14' W 077°57'0 0.0
2018-Jun-21 04:30N 34°14' W 077°57'0 0.0
2018-Jun-21 03:57N 34°14' W 077°57'0 0.0
2018-Jun-21 03:31N 34°14' W 077°57'0 0.0
2018-Jun-21 02:58N 34°14' W 077°57'0 0.0
2018-Jun-21 02:17N 34°14' W 077°57'0 0.0
2018-Jun-21 00:59N 34°14' W 077°57'0 0.0
2018-Jun-21 00:20N 34°14' W 077°57'0 0.0
2018-Jun-21 00:00N 34°14' W 077°57'0 0.0
2018-Jun-20 23:28N 34°14' W 077°57'0 0.0
2018-Jun-20 23:01N 34°14' W 077°57'0 0.0
2018-Jun-20 22:30N 34°14' W 077°57'0 0.0
2018-Jun-20 21:56N 34°14' W 077°57'0 0.0
2018-Jun-20 20:36N 34°14' W 077°57'0 0.0
2018-Jun-20 20:29N 34°14' W 077°57'0 0.0
2018-Jun-20 19:26N 34°14' W 077°57'0 0.0
2018-Jun-20 19:00N 34°14' W 077°57'0 0.0
2018-Jun-20 18:30N 34°14' W 077°57'0 0.0
2018-Jun-20 18:01N 34°14' W 077°57'0 0.5
2018-Jun-20 17:31N 34°13' W 077°57'0 0.0
2018-Jun-20 17:00N 34°13' W 077°57'0 0.0
2018-Jun-20 16:31N 34°13' W 077°57'0 0.0
2018-Jun-20 16:01N 34°13' W 077°57'0 0.4
2018-Jun-20 15:28N 34°14' W 077°57'0 0.0
2018-Jun-20 14:24N 34°14' W 077°57'0 0.0
2018-Jun-20 13:50N 34°14' W 077°57'0 0.0
2018-Jun-20 13:18N 34°14' W 077°57'0 0.0
2018-Jun-20 13:00N 34°14' W 077°57'0 0.0
2018-Jun-20 12:31N 34°14' W 077°57'0 0.0
2018-Jun-20 12:00N 34°14' W 077°57'0 0.0
2018-Jun-20 11:31N 34°14' W 077°57'0 0.0
2018-Jun-20 11:01N 34°14' W 077°57'0 0.0
2018-Jun-20 10:30N 34°14' W 077°57'0 0.0
2018-Jun-20 10:00N 34°14' W 077°57'0 0.0
2018-Jun-20 09:30N 34°14' W 077°57'0 0.0
2018-Jun-20 08:49N 34°14' W 077°57'0 0.0
2018-Jun-20 08:31N 34°14' W 077°57'0 0.0
2018-Jun-20 08:00N 34°14' W 077°57'0 0.0
2018-Jun-20 07:30N 34°14' W 077°57'0 0.0
2018-Jun-20 06:57N 34°14' W 077°57'0 0.0
2018-Jun-20 06:30N 34°14' W 077°57'0 0.0
2018-Jun-20 06:00N 34°14' W 077°57'0 0.0
2018-Jun-20 05:28N 34°14' W 077°57'0 0.0
2018-Jun-20 05:01N 34°14' W 077°57'0 0.0
2018-Jun-20 04:30N 34°14' W 077°57'0 0.0
2018-Jun-20 04:01N 34°14' W 077°57'0 0.0
2018-Jun-20 03:30N 34°14' W 077°57'0 0.0
2018-Jun-20 03:00N 34°14' W 077°57'0 0.0
2018-Jun-20 02:25N 34°14' W 077°57'0 0.0
2018-Jun-20 01:59N 34°14' W 077°57'0 0.0
2018-Jun-20 01:30N 34°14' W 077°57'0 0.0
2018-Jun-20 01:00N 34°14' W 077°57'0 0.0
2018-Jun-20 00:31N 34°14' W 077°57'0 0.0
2018-Jun-20 00:01N 34°14' W 077°57'0 0.0
2018-Jun-19 23:30N 34°14' W 077°57'2 1.5
2018-Jun-19 21:52N 34°11' W 077°57'1 3.5
2018-Jun-19 21:31N 34°12' W 077°57'1 2.4
2018-Jun-19 21:00N 34°14' W 077°57'0 0.0
2018-Jun-19 20:31N 34°14' W 077°57'0 0.1
2018-Jun-19 20:01N 34°14' W 077°57'0 0.2
2018-Jun-19 19:30N 34°14' W 077°57'0 0.3
2018-Jun-19 19:01N 34°13' W 077°57'0 0.1
2018-Jun-19 18:31N 34°13' W 077°57'0 0.1
2018-Jun-19 18:01N 34°13' W 077°57'0 0.0
2018-Jun-19 17:31N 34°13' W 077°57'0 0.1
2018-Jun-19 17:01N 34°14' W 077°57'0 0.0
2018-Jun-19 16:30N 34°14' W 077°57'0 0.0
2018-Jun-19 16:01N 34°14' W 077°57'0 0.0
2018-Jun-19 15:30N 34°14' W 077°57'0 0.0
2018-Jun-19 15:01N 34°14' W 077°57'0 0.1
2018-Jun-19 14:31N 34°13' W 077°57'0 0.1
2018-Jun-19 14:00N 34°14' W 077°57'0 0.0
2018-Jun-19 13:31N 34°14' W 077°57'0 0.1
2018-Jun-19 13:00N 34°13' W 077°57'0 0.2
2018-Jun-19 12:29N 34°14' W 077°57'0 0.0
2018-Jun-19 11:45N 34°14' W 077°57'0 0.0
2018-Jun-19 11:29N 34°14' W 077°57'0 0.0
2018-Jun-19 10:55N 34°14' W 077°57'0 0.0
2018-Jun-19 10:30N 34°14' W 077°57'0 0.0
2018-Jun-19 10:00N 34°14' W 077°57'0 0.0
2018-Jun-19 09:30N 34°14' W 077°57'0 0.0
2018-Jun-19 09:01N 34°14' W 077°57'0 0.0
2018-Jun-19 08:30N 34°14' W 077°57'0 0.0
2018-Jun-19 08:00N 34°14' W 077°57'0 0.0
2018-Jun-19 07:31N 34°14' W 077°57'0 0.0
2018-Jun-19 07:00N 34°14' W 077°57'0 0.0
2018-Jun-19 06:30N 34°14' W 077°57'0 0.0
2018-Jun-19 06:00N 34°14' W 077°57'0 0.0
2018-Jun-19 05:31N 34°14' W 077°57'0 0.0
2018-Jun-19 05:01N 34°14' W 077°57'0 0.0
2018-Jun-19 04:31N 34°14' W 077°57'0 0.0
2018-Jun-19 04:01N 34°14' W 077°57'0 0.0
2018-Jun-19 03:31N 34°14' W 077°57'0 0.0
2018-Jun-19 03:00N 34°14' W 077°57'0 0.0
2018-Jun-19 02:31N 34°14' W 077°57'0 0.0
2018-Jun-19 02:01N 34°14' W 077°57'0 0.7
2018-Jun-19 01:31N 34°13' W 077°57'  
2018-Jun-14 21:57N 27°01' W 080°03'3 6.6
2018-Jun-14 21:30N 26°58' W 080°02'4 6.9
2018-Jun-14 20:59N 26°55' W 080°00'36 7.2
2018-Jun-14 15:59N 26°19' W 079°58'3 6.3
2018-Jun-14 15:30N 26°16' W 079°58'4 7.2
2018-Jun-14 15:00N 26°12' W 079°58'3 7.0
2018-Jun-14 14:30N 26°09' W 079°58'4 7.0
2018-Jun-14 14:00N 26°06' W 079°57'4 6.8
2018-Jun-14 13:29N 26°02' W 079°58'3 6.0
2018-Jun-14 13:01N 25°60' W 079°59'3 5.5
2018-Jun-14 12:30N 25°58' W 080°01'3 5.7
2018-Jun-14 12:01N 25°55' W 080°01'3 6.1
2018-Jun-14 11:31N 25°52' W 080°01'3 6.6
2018-Jun-14 11:01N 25°48' W 080°00'3 6.8
2018-Jun-14 10:30N 25°45' W 080°00'4 7.0
2018-Jun-14 09:59N 25°41' W 080°01'  
Track history (hours):
 
Tides and Currents Weather Stations Pressure Air Temp Water Temp Dewpoint Dewpoint Depression Visibility Wind Speed Wind Dir Waves Ship Positions

Smith Hunter

Owner: Smith Marine Towing, Morgan City, LA. More information available from US FCC via Universal Licensing System and Coast Guard Vessel Documentation Center.

Last reported at 2018-Jun-22 16:52 UTC. Time now 2018-Jun-24 12:59 UTC.
Position N 34°33' W 076°23'.

Length 28 m; draft 3 m.

Type: Other ship. MMSI: 367077850.

Date/timePositionNaut miles runAvg speedWind from/ knotsBaromVisibWave heightAir tempDewpointWater temp
2018-Jun-22 16:52N 34°33' W 076°23'3 6.9
2018-Jun-22 16:30N 34°31' W 076°24'4 6.3
2018-Jun-22 15:49N 34°27' W 076°27'2 5.1
2018-Jun-22 15:30N 34°26' W 076°29'7 5.4
2018-Jun-22 14:08N 34°30' W 076°37'1 5.8
2018-Jun-22 14:00N 34°31' W 076°37'3 5.9
2018-Jun-22 13:30N 34°32' W 076°40'3 6.1
2018-Jun-22 13:01N 34°34' W 076°43'3 6.3
2018-Jun-22 12:28N 34°36' W 076°47'3 6.3
2018-Jun-22 12:00N 34°37' W 076°50'61 3.2
2018-Jun-21 16:47N 34°12' W 077°57'1 4.6
2018-Jun-21 16:31N 34°14' W 077°57'0 0.0
2018-Jun-21 15:59N 34°14' W 077°57'0 0.0
2018-Jun-21 15:16N 34°14' W 077°57'0 0.0
2018-Jun-21 15:00N 34°14' W 077°57'0 0.0
2018-Jun-21 14:25N 34°14' W 077°57'0 0.0
2018-Jun-21 13:58N 34°14' W 077°57'0 0.0
2018-Jun-21 13:29N 34°14' W 077°57'0 0.0
2018-Jun-21 13:00N 34°14' W 077°57'0 0.0
2018-Jun-21 12:31N 34°14' W 077°57'0 0.0
2018-Jun-21 12:00N 34°14' W 077°57'0 0.0
2018-Jun-21 11:10N 34°14' W 077°57'0 0.0
2018-Jun-21 11:00N 34°14' W 077°57'0 0.0
2018-Jun-21 10:30N 34°14' W 077°57'0 0.0
2018-Jun-21 10:00N 34°14' W 077°57'0 0.0
2018-Jun-21 09:27N 34°14' W 077°57'0 0.0
2018-Jun-21 08:57N 34°14' W 077°57'0 0.0
2018-Jun-21 08:30N 34°14' W 077°57'0 0.0
2018-Jun-21 08:01N 34°14' W 077°57'0 0.0
2018-Jun-21 07:31N 34°14' W 077°57'0 0.0
2018-Jun-21 07:00N 34°14' W 077°57'0 0.0
2018-Jun-21 06:31N 34°14' W 077°57'0 0.0
2018-Jun-21 06:00N 34°14' W 077°57'0 0.0
2018-Jun-21 05:31N 34°14' W 077°57'0 0.0
2018-Jun-21 05:00N 34°14' W 077°57'0 0.0
2018-Jun-21 04:30N 34°14' W 077°57'0 0.0
2018-Jun-21 03:57N 34°14' W 077°57'0 0.0
2018-Jun-21 03:31N 34°14' W 077°57'0 0.0
2018-Jun-21 02:58N 34°14' W 077°57'0 0.0
2018-Jun-21 02:17N 34°14' W 077°57'0 0.0
2018-Jun-21 00:59N 34°14' W 077°57'0 0.0
2018-Jun-21 00:20N 34°14' W 077°57'0 0.0
2018-Jun-21 00:00N 34°14' W 077°57'0 0.0
2018-Jun-20 23:28N 34°14' W 077°57'0 0.0
2018-Jun-20 23:01N 34°14' W 077°57'0 0.0
2018-Jun-20 22:30N 34°14' W 077°57'0 0.0
2018-Jun-20 21:56N 34°14' W 077°57'0 0.0
2018-Jun-20 20:36N 34°14' W 077°57'0 0.0
2018-Jun-20 20:29N 34°14' W 077°57'0 0.0
2018-Jun-20 19:26N 34°14' W 077°57'0 0.0
2018-Jun-20 19:00N 34°14' W 077°57'0 0.0
2018-Jun-20 18:30N 34°14' W 077°57'0 0.0
2018-Jun-20 18:01N 34°14' W 077°57'0 0.5
2018-Jun-20 17:31N 34°13' W 077°57'0 0.0
2018-Jun-20 17:00N 34°13' W 077°57'0 0.0
2018-Jun-20 16:31N 34°13' W 077°57'0 0.0
2018-Jun-20 16:01N 34°13' W 077°57'0 0.4
2018-Jun-20 15:28N 34°14' W 077°57'0 0.0
2018-Jun-20 14:24N 34°14' W 077°57'0 0.0
2018-Jun-20 13:50N 34°14' W 077°57'0 0.0
2018-Jun-20 13:18N 34°14' W 077°57'0 0.0
2018-Jun-20 13:00N 34°14' W 077°57'0 0.0
2018-Jun-20 12:31N 34°14' W 077°57'0 0.0
2018-Jun-20 12:00N 34°14' W 077°57'0 0.0
2018-Jun-20 11:31N 34°14' W 077°57'0 0.0
2018-Jun-20 11:01N 34°14' W 077°57'0 0.0
2018-Jun-20 10:30N 34°14' W 077°57'0 0.0
2018-Jun-20 10:00N 34°14' W 077°57'0 0.0
2018-Jun-20 09:30N 34°14' W 077°57'0 0.0
2018-Jun-20 08:49N 34°14' W 077°57'0 0.0
2018-Jun-20 08:31N 34°14' W 077°57'0 0.0
2018-Jun-20 08:00N 34°14' W 077°57'0 0.0
2018-Jun-20 07:30N 34°14' W 077°57'0 0.0
2018-Jun-20 06:57N 34°14' W 077°57'0 0.0
2018-Jun-20 06:30N 34°14' W 077°57'0 0.0
2018-Jun-20 06:00N 34°14' W 077°57'0 0.0
2018-Jun-20 05:28N 34°14' W 077°57'0 0.0
2018-Jun-20 05:01N 34°14' W 077°57'0 0.0
2018-Jun-20 04:30N 34°14' W 077°57'0 0.0
2018-Jun-20 04:01N 34°14' W 077°57'0 0.0
2018-Jun-20 03:30N 34°14' W 077°57'0 0.0
2018-Jun-20 03:00N 34°14' W 077°57'0 0.0
2018-Jun-20 02:25N 34°14' W 077°57'0 0.0
2018-Jun-20 01:59N 34°14' W 077°57'0 0.0
2018-Jun-20 01:30N 34°14' W 077°57'0 0.0
2018-Jun-20 01:00N 34°14' W 077°57'0 0.0
2018-Jun-20 00:31N 34°14' W 077°57'0 0.0
2018-Jun-20 00:01N 34°14' W 077°57'0 0.0
2018-Jun-19 23:30N 34°14' W 077°57'2 1.5
2018-Jun-19 21:52N 34°11' W 077°57'1 3.5
2018-Jun-19 21:31N 34°12' W 077°57'1 2.4
2018-Jun-19 21:00N 34°14' W 077°57'0 0.0
2018-Jun-19 20:31N 34°14' W 077°57'0 0.1
2018-Jun-19 20:01N 34°14' W 077°57'0 0.2
2018-Jun-19 19:30N 34°14' W 077°57'0 0.3
2018-Jun-19 19:01N 34°13' W 077°57'0 0.1
2018-Jun-19 18:31N 34°13' W 077°57'0 0.1
2018-Jun-19 18:01N 34°13' W 077°57'0 0.0
2018-Jun-19 17:31N 34°13' W 077°57'0 0.1
2018-Jun-19 17:01N 34°14' W 077°57'0 0.0
2018-Jun-19 16:30N 34°14' W 077°57'0 0.0
2018-Jun-19 16:01N 34°14' W 077°57'0 0.0
2018-Jun-19 15:30N 34°14' W 077°57'0 0.0
2018-Jun-19 15:01N 34°14' W 077°57'0 0.1
2018-Jun-19 14:31N 34°13' W 077°57'0 0.1
2018-Jun-19 14:00N 34°14' W 077°57'0 0.0
2018-Jun-19 13:31N 34°14' W 077°57'0 0.1
2018-Jun-19 13:00N 34°13' W 077°57'0 0.2
2018-Jun-19 12:29N 34°14' W 077°57'0 0.0
2018-Jun-19 11:45N 34°14' W 077°57'0 0.0
2018-Jun-19 11:29N 34°14' W 077°57'0 0.0
2018-Jun-19 10:55N 34°14' W 077°57'0 0.0
2018-Jun-19 10:30N 34°14' W 077°57'0 0.0
2018-Jun-19 10:00N 34°14' W 077°57'0 0.0
2018-Jun-19 09:30N 34°14' W 077°57'0 0.0
2018-Jun-19 09:01N 34°14' W 077°57'0 0.0
2018-Jun-19 08:30N 34°14' W 077°57'0 0.0
2018-Jun-19 08:00N 34°14' W 077°57'0 0.0
2018-Jun-19 07:31N 34°14' W 077°57'0 0.0
2018-Jun-19 07:00N 34°14' W 077°57'0 0.0
2018-Jun-19 06:30N 34°14' W 077°57'0 0.0
2018-Jun-19 06:00N 34°14' W 077°57'0 0.0
2018-Jun-19 05:31N 34°14' W 077°57'0 0.0
2018-Jun-19 05:01N 34°14' W 077°57'0 0.0
2018-Jun-19 04:31N 34°14' W 077°57'0 0.0
2018-Jun-19 04:01N 34°14' W 077°57'0 0.0
2018-Jun-19 03:31N 34°14' W 077°57'0 0.0
2018-Jun-19 03:00N 34°14' W 077°57'0 0.0
2018-Jun-19 02:31N 34°14' W 077°57'0 0.0
2018-Jun-19 02:01N 34°14' W 077°57'0 0.7
2018-Jun-19 01:31N 34°13' W 077°57'  
2018-Jun-14 21:57N 27°01' W 080°03'3 6.6
2018-Jun-14 21:30N 26°58' W 080°02'4 6.9
2018-Jun-14 20:59N 26°55' W 080°00'36 7.2
2018-Jun-14 15:59N 26°19' W 079°58'3 6.3
2018-Jun-14 15:30N 26°16' W 079°58'4 7.2
2018-Jun-14 15:00N 26°12' W 079°58'3 7.0
2018-Jun-14 14:30N 26°09' W 079°58'4 7.0
2018-Jun-14 14:00N 26°06' W 079°57'4 6.8
2018-Jun-14 13:29N 26°02' W 079°58'3 6.0
2018-Jun-14 13:01N 25°60' W 079°59'3 5.5
2018-Jun-14 12:30N 25°58' W 080°01'3 5.7
2018-Jun-14 12:01N 25°55' W 080°01'3 6.1
2018-Jun-14 11:31N 25°52' W 080°01'3 6.6
2018-Jun-14 11:01N 25°48' W 080°00'3 6.8
2018-Jun-14 10:30N 25°45' W 080°00'4 7.0
2018-Jun-14 09:59N 25°41' W 080°01'  

Dump ship's entire track history